Time;durP1;ratioP1;P1;durP2;ratioP2;P2;SDS_P1;SDS_P2;PMS_P1;PMS_P2;Temp;Humidity;BMP_temperature;BMP_pressure;BME280_temperature;BME280_humidity;BME280_pressure;Samples;Min_cycle;Max_cycle;Signal;HPM_P1;HPM_P2
2023/01/08 00:01:10;;;;;;;0.00;0.00;;;9.00;99.90;;;;;;5013701;28;20203;-68
2023/01/08 00:03:36;;;;;;;0.00;0.00;;;9.00;99.90;;;;;;5013847;28;20269;-68
2023/01/08 00:06:05;;;;;;;0.00;0.00;;;9.00;99.90;;;;;;5013548;28;20270;-68
2023/01/08 00:08:31;;;;;;;0.00;0.00;;;9.00;99.90;;;;;;5013557;28;20180;-68
2023/01/08 00:10:57;;;;;;;0.00;0.00;;;9.00;99.90;;;;;;5013423;28;20723;-68
2023/01/08 00:13:23;;;;;;;0.00;0.00;;;8.90;99.90;;;;;;4996076;28;20202;-68
2023/01/08 00:15:49;;;;;;;0.30;0.20;;;8.90;99.90;;;;;;5013281;28;20187;-67
2023/01/08 00:18:15;;;;;;;0.10;0.10;;;8.90;99.90;;;;;;4996298;28;20221;-67
2023/01/08 00:20:42;;;;;;;0.30;0.30;;;8.90;99.90;;;;;;5013023;28;20699;-68
2023/01/08 00:23:18;;;;;;;0.10;0.10;;;8.80;99.90;;;;;;5012390;28;20190;-68
2023/01/08 00:25:44;;;;;;;0.00;0.00;;;8.80;99.90;;;;;;5012971;28;20186;-68
2023/01/08 00:28:10;;;;;;;0.00;0.00;;;8.80;99.90;;;;;;5013416;28;20195;-68
2023/01/08 00:30:36;;;;;;;0.00;0.00;;;8.80;99.90;;;;;;5012557;28;20182;-68
2023/01/08 00:33:01;;;;;;;0.00;0.00;;;8.80;99.90;;;;;;5012815;28;20183;-67
2023/01/08 00:35:27;;;;;;;0.00;0.00;;;8.80;99.90;;;;;;5009381;28;20178;-68
2023/01/08 00:37:53;;;;;;;0.00;0.00;;;8.80;99.90;;;;;;5007834;28;20211;-67
2023/01/08 00:40:18;;;;;;;0.00;0.00;;;8.80;99.90;;;;;;4994711;28;20336;-68
2023/01/08 00:42:44;;;;;;;0.00;0.00;;;8.80;99.90;;;;;;4984613;28;20175;-67
2023/01/08 00:45:10;;;;;;;0.00;0.00;;;8.80;99.90;;;;;;5012521;28;20183;-68
2023/01/08 00:47:36;;;;;;;0.22;0.22;;;8.80;99.90;;;;;;5012459;28;20630;-67
2023/01/08 00:50:01;;;;;;;0.00;0.00;;;8.80;99.90;;;;;;5012610;28;20237;-68
2023/01/08 00:52:27;;;;;;;0.00;0.00;;;8.80;99.90;;;;;;5012919;28;20179;-68
2023/01/08 00:54:53;;;;;;;0.10;0.10;;;8.80;99.90;;;;;;5012164;28;20667;-67
2023/01/08 00:57:18;;;;;;;0.00;0.00;;;8.80;99.90;;;;;;5013003;28;20187;-68
2023/01/08 00:59:44;;;;;;;0.00;0.00;;;8.70;99.90;;;;;;5012660;28;20178;-67
2023/01/08 01:02:09;;;;;;;0.00;0.00;;;8.70;99.90;;;;;;4993205;28;20250;-68
2023/01/08 01:04:35;;;;;;;0.00;0.00;;;8.70;99.90;;;;;;4993027;28;20510;-68
2023/01/08 01:07:01;;;;;;;0.00;0.00;;;8.70;99.90;;;;;;5011189;28;20186;-68
2023/01/08 01:09:27;;;;;;;0.00;0.00;;;8.70;99.90;;;;;;5012239;28;20213;-68
2023/01/08 01:11:52;;;;;;;0.00;0.00;;;8.70;99.90;;;;;;5012582;28;20199;-68
2023/01/08 01:14:18;;;;;;;0.03;0.03;;;8.60;99.90;;;;;;5012525;28;20183;-68
2023/01/08 01:16:43;;;;;;;0.00;0.00;;;8.60;99.90;;;;;;5012007;28;20187;-68
2023/01/08 01:19:09;;;;;;;0.00;0.00;;;8.50;99.90;;;;;;5012361;28;20225;-68
2023/01/08 01:21:35;;;;;;;0.00;0.00;;;8.50;99.90;;;;;;5011994;28;20574;-68
2023/01/08 01:24:03;;;;;;;0.00;0.00;;;8.40;99.90;;;;;;5012028;28;20179;-68
2023/01/08 01:26:30;;;;;;;0.10;0.05;;;8.40;99.90;;;;;;5012312;28;20179;-68
2023/01/08 01:28:56;;;;;;;0.05;0.05;;;8.40;99.90;;;;;;5012054;28;20181;-68
2023/01/08 01:31:23;;;;;;;0.47;0.47;;;8.40;99.90;;;;;;5012331;28;20525;-68
2023/01/08 01:33:49;;;;;;;0.00;0.00;;;8.40;99.90;;;;;;4994320;28;20186;-68
2023/01/08 01:36:17;;;;;;;0.00;0.00;;;8.40;99.90;;;;;;5011067;28;20218;-68
2023/01/08 01:38:47;;;;;;;0.00;0.00;;;8.40;99.90;;;;;;5003423;28;20635;-68
2023/01/08 01:41:40;;;;;;;0.00;0.00;;;8.40;99.90;;;;;;5011175;28;20268;-68
2023/01/08 01:44:39;;;;;;;0.00;0.00;;;8.40;99.90;;;;;;5005589;28;20195;-68
2023/01/08 01:47:22;;;;;;;0.00;0.00;;;8.40;99.90;;;;;;5011566;28;20182;-68
2023/01/08 01:50:25;;;;;;;0.00;0.00;;;8.40;99.90;;;;;;4996577;28;20218;-68
2023/01/08 01:53:11;;;;;;;0.00;0.00;;;8.40;99.90;;;;;;4992163;28;20270;-68
2023/01/08 01:55:41;;;;;;;0.10;0.10;;;8.30;99.90;;;;;;4993247;28;20194;-68
2023/01/08 01:58:14;;;;;;;0.00;0.00;;;8.30;99.90;;;;;;5010993;28;20174;-68
2023/01/08 02:00:40;;;;;;;0.45;0.45;;;8.30;99.90;;;;;;5011376;28;20245;-68
2023/01/08 02:03:08;;;;;;;0.00;0.00;;;8.20;99.90;;;;;;5011713;28;20258;-68
2023/01/08 02:05:49;;;;;;;0.00;0.00;;;8.20;99.90;;;;;;5011549;28;20226;-67
2023/01/08 02:08:27;;;;;;;0.00;0.00;;;8.20;99.90;;;;;;5012003;28;20205;-68
2023/01/08 02:11:13;;;;;;;0.00;0.00;;;8.30;99.90;;;;;;5011509;28;20183;-68
2023/01/08 02:13:46;;;;;;;0.00;0.00;;;8.30;99.90;;;;;;5011386;28;20174;-68
2023/01/08 02:16:16;;;;;;;0.00;0.00;;;8.30;99.90;;;;;;5011976;28;20630;-68
2023/01/08 02:18:57;;;;;;;0.00;0.00;;;8.30;99.90;;;;;;5011497;28;20673;-68
2023/01/08 02:21:35;;;;;;;0.00;0.00;;;8.30;99.90;;;;;;5011844;28;20274;-68
2023/01/08 02:24:26;;;;;;;1.30;0.17;;;8.40;99.90;;;;;;5011332;28;20187;-68
2023/01/08 02:26:54;;;;;;;0.00;0.00;;;8.40;99.90;;;;;;4984784;28;20524;-68
2023/01/08 02:29:22;;;;;;;0.00;0.00;;;8.50;99.90;;;;;;4993603;28;20281;-68
2023/01/08 02:31:48;;;;;;;0.00;0.00;;;8.50;99.90;;;;;;5011636;28;20202;-68
2023/01/08 02:34:14;;;;;;;0.10;0.10;;;8.50;99.90;;;;;;5011546;28;20206;-68
2023/01/08 02:36:52;;;;;;;0.00;0.00;;;8.60;99.90;;;;;;5011479;28;20662;-68
2023/01/08 02:39:32;;;;;;;0.00;0.00;;;8.60;99.90;;;;;;5011443;28;20175;-68
2023/01/08 02:41:57;;;;;;;0.00;0.00;;;8.60;99.90;;;;;;5011220;28;20211;-68
2023/01/08 02:44:52;;;;;;;0.00;0.00;;;8.60;99.90;;;;;;5011382;28;20189;-67
2023/01/08 02:47:34;;;;;;;0.00;0.00;;;8.60;99.90;;;;;;5010904;28;20187;-68
2023/01/08 02:50:07;;;;;;;0.00;0.00;;;8.60;99.90;;;;;;5005333;28;20182;-68
2023/01/08 02:52:39;;;;;;;0.00;0.00;;;8.60;99.90;;;;;;5009529;28;20666;-67
2023/01/08 02:55:06;;;;;;;0.00;0.00;;;8.60;99.90;;;;;;5010423;28;20206;-67
2023/01/08 02:57:33;;;;;;;0.03;0.03;;;8.60;99.90;;;;;;5011144;28;20266;-67
2023/01/08 02:59:58;;;;;;;0.00;0.00;;;8.60;99.90;;;;;;5011340;28;20179;-67
2023/01/08 03:02:28;;;;;;;0.00;0.00;;;8.70;99.90;;;;;;5011038;28;20225;-68
2023/01/08 03:05:02;;;;;;;0.00;0.00;;;8.70;99.90;;;;;;5011438;28;20175;-67
2023/01/08 03:07:27;;;;;;;0.00;0.00;;;8.70;99.90;;;;;;4993552;28;20189;-68
2023/01/08 03:09:53;;;;;;;0.00;0.00;;;8.60;99.90;;;;;;5013281;28;20261;-68
2023/01/08 03:12:35;;;;;;;0.00;0.00;;;8.60;99.90;;;;;;5014362;28;20187;-68
2023/01/08 03:15:07;;;;;;;0.00;0.00;;;8.60;99.90;;;;;;5014394;28;21637;-67
2023/01/08 03:17:40;;;;;;;0.00;0.00;;;8.60;99.90;;;;;;5014531;28;20214;-67
2023/01/08 03:20:10;;;;;;;0.00;0.00;;;8.60;99.90;;;;;;4996750;28;20195;-67
2023/01/08 03:22:39;;;;;;;0.00;0.00;;;8.60;99.90;;;;;;5014583;28;20218;-67
2023/01/08 03:25:07;;;;;;;0.00;0.00;;;8.60;99.90;;;;;;5013681;28;20539;-67
2023/01/08 03:27:39;;;;;;;0.00;0.00;;;8.70;99.90;;;;;;4995545;28;20187;-67
2023/01/08 03:30:07;;;;;;;0.00;0.00;;;8.70;99.90;;;;;;5013162;28;20189;-68
2023/01/08 03:32:32;;;;;;;0.00;0.00;;;8.70;99.90;;;;;;5013261;28;20560;-68
2023/01/08 03:35:01;;;;;;;0.00;0.00;;;8.70;99.90;;;;;;5013796;28;20182;-67
2023/01/08 03:37:34;;;;;;;0.00;0.00;;;8.80;99.90;;;;;;5013783;28;20206;-68
2023/01/08 03:40:18;;;;;;;0.00;0.00;;;8.90;99.90;;;;;;5013230;28;20189;-68
2023/01/08 03:42:44;;;;;;;0.00;0.00;;;8.80;99.90;;;;;;5013517;28;20222;-68
2023/01/08 03:45:10;;;;;;;0.00;0.00;;;8.90;99.90;;;;;;5013715;28;20183;-68
2023/01/08 03:47:38;;;;;;;0.00;0.00;;;8.90;99.90;;;;;;5013267;28;20175;-67
2023/01/08 03:50:09;;;;;;;0.00;0.00;;;8.90;99.90;;;;;;5012597;28;20183;-68
2023/01/08 03:52:35;;;;;;;0.00;0.00;;;8.90;99.90;;;;;;5013168;28;20244;-67
2023/01/08 03:55:01;;;;;;;0.00;0.00;;;8.90;99.90;;;;;;5013181;28;20331;-67
2023/01/08 03:57:26;;;;;;;0.00;0.00;;;8.90;99.90;;;;;;5013021;28;20186;-68
2023/01/08 03:59:52;;;;;;;0.20;0.20;;;8.90;99.90;;;;;;5011784;28;20199;-67
2023/01/08 04:02:18;;;;;;;0.00;0.00;;;8.90;99.90;;;;;;4986890;28;20211;-67
2023/01/08 04:04:43;;;;;;;0.00;0.00;;;8.90;99.90;;;;;;5013323;28;20186;-67
2023/01/08 04:07:10;;;;;;;0.00;0.00;;;8.90;99.90;;;;;;5013180;28;20190;-68
2023/01/08 04:09:36;;;;;;;0.00;0.00;;;8.90;99.90;;;;;;5013316;28;20528;-67
2023/01/08 04:12:01;;;;;;;0.00;0.00;;;8.90;99.90;;;;;;5012522;28;20186;-67
2023/01/08 04:14:27;;;;;;;0.00;0.00;;;8.90;99.90;;;;;;4995839;28;20182;-67
2023/01/08 04:16:52;;;;;;;0.03;0.03;;;9.00;99.90;;;;;;5012906;28;20187;-68
2023/01/08 04:19:18;;;;;;;0.00;0.00;;;9.00;99.90;;;;;;5013016;28;20218;-67
2023/01/08 04:21:43;;;;;;;0.00;0.00;;;9.00;99.90;;;;;;5012116;28;20584;-68
2023/01/08 04:24:11;;;;;;;0.00;0.00;;;9.00;99.90;;;;;;5011912;28;20179;-67
2023/01/08 04:26:37;;;;;;;0.00;0.00;;;9.00;99.90;;;;;;5010924;28;20269;-67
2023/01/08 04:29:03;;;;;;;0.00;0.00;;;8.90;99.90;;;;;;4994502;28;20274;-67
2023/01/08 04:31:29;;;;;;;0.45;0.32;;;8.90;99.90;;;;;;5012670;28;20194;-67
2023/01/08 04:33:55;;;;;;;0.10;0.10;;;8.90;99.90;;;;;;5010582;28;20206;-67
2023/01/08 04:36:20;;;;;;;0.00;0.00;;;8.90;99.90;;;;;;4992524;28;20638;-67
2023/01/08 04:38:46;;;;;;;0.00;0.00;;;8.90;99.90;;;;;;5009427;28;20175;-67
2023/01/08 04:41:11;;;;;;;0.00;0.00;;;8.90;99.90;;;;;;5013212;28;20206;-67
2023/01/08 04:43:37;;;;;;;0.00;0.00;;;8.90;99.90;;;;;;5012747;28;20190;-67
2023/01/08 04:46:06;;;;;;;0.00;0.00;;;8.90;99.90;;;;;;5013153;28;20209;-67
2023/01/08 04:48:32;;;;;;;0.00;0.00;;;8.90;99.90;;;;;;5012671;28;20195;-67
2023/01/08 04:50:59;;;;;;;0.00;0.00;;;8.90;99.90;;;;;;5012908;28;20236;-67
2023/01/08 04:53:25;;;;;;;0.00;0.00;;;8.90;99.90;;;;;;5013112;28;20237;-67
2023/01/08 04:55:50;;;;;;;0.00;0.00;;;8.90;99.90;;;;;;5012860;28;20218;-67
2023/01/08 04:58:16;;;;;;;0.00;0.00;;;8.90;99.90;;;;;;5012420;28;20195;-67
2023/01/08 05:00:41;;;;;;;0.00;0.00;;;9.00;99.90;;;;;;5012368;28;20546;-67
2023/01/08 05:03:07;;;;;;;0.00;0.00;;;8.90;99.90;;;;;;5012710;28;20186;-67
2023/01/08 05:05:33;;;;;;;0.00;0.00;;;9.00;99.90;;;;;;5012279;28;20178;-68
2023/01/08 05:07:59;;;;;;;0.00;0.00;;;9.00;99.90;;;;;;5012411;28;20182;-67
2023/01/08 05:10:24;;;;;;;0.00;0.00;;;9.00;99.90;;;;;;5012343;28;20181;-67
2023/01/08 05:12:50;;;;;;;0.00;0.00;;;9.00;99.90;;;;;;5012628;28;20335;-67
2023/01/08 05:15:16;;;;;;;0.00;0.00;;;9.00;99.90;;;;;;5012246;28;20183;-67
2023/01/08 05:17:41;;;;;;;0.00;0.00;;;9.00;99.90;;;;;;5012554;28;20178;-67
2023/01/08 05:20:07;;;;;;;0.00;0.00;;;8.90;99.90;;;;;;5012168;28;20653;-67
2023/01/08 05:22:33;;;;;;;0.00;0.00;;;8.90;99.90;;;;;;5012330;28;20221;-67
2023/01/08 05:24:59;;;;;;;0.00;0.00;;;8.90;99.90;;;;;;5011914;28;20198;-67
2023/01/08 05:27:24;;;;;;;0.00;0.00;;;8.90;99.90;;;;;;5012406;28;20637;-67
2023/01/08 05:29:50;;;;;;;0.17;0.17;;;8.90;99.90;;;;;;5012069;28;20183;-67
2023/01/08 05:32:17;;;;;;;0.00;0.00;;;8.90;99.90;;;;;;5011554;28;20643;-68
2023/01/08 05:34:44;;;;;;;0.00;0.00;;;8.90;99.90;;;;;;5010979;28;20206;-68
2023/01/08 05:37:09;;;;;;;0.00;0.00;;;8.90;99.90;;;;;;5000497;28;20191;-67
2023/01/08 05:39:35;;;;;;;0.00;0.00;;;8.90;99.90;;;;;;5000355;28;20762;-67
2023/01/08 05:42:02;;;;;;;0.00;0.00;;;8.90;99.90;;;;;;5006904;28;20708;-68
2023/01/08 05:44:27;;;;;;;0.00;0.00;;;8.90;99.90;;;;;;5008972;28;20186;-67
2023/01/08 05:46:53;;;;;;;0.00;0.00;;;8.90;99.90;;;;;;5008551;28;20194;-67
2023/01/08 05:49:20;;;;;;;0.00;0.00;;;8.90;99.90;;;;;;5011823;28;20182;-67
2023/01/08 05:51:46;;;;;;;0.00;0.00;;;8.90;99.90;;;;;;5011357;28;20590;-67
2023/01/08 05:54:12;;;;;;;0.10;0.10;;;8.90;99.90;;;;;;5011655;28;20273;-67
2023/01/08 05:56:38;;;;;;;0.00;0.00;;;8.90;99.90;;;;;;5011386;28;20262;-67
2023/01/08 05:59:04;;;;;;;0.00;0.00;;;8.90;99.90;;;;;;5011813;28;20269;-67
2023/01/08 06:01:31;;;;;;;0.00;0.00;;;8.90;99.90;;;;;;5011561;28;20210;-67
2023/01/08 06:03:57;;;;;;;0.00;0.00;;;8.90;99.90;;;;;;5011902;28;20232;-67
2023/01/08 06:06:23;;;;;;;0.00;0.00;;;8.90;99.90;;;;;;5011586;28;20239;-67
2023/01/08 06:08:49;;;;;;;0.00;0.00;;;8.90;99.90;;;;;;5011884;28;20254;-68
2023/01/08 06:11:14;;;;;;;0.05;0.05;;;8.90;99.90;;;;;;5011640;28;20191;-68
2023/01/08 06:13:43;;;;;;;0.00;0.00;;;8.90;99.90;;;;;;5011846;28;20274;-68
2023/01/08 06:16:09;;;;;;;0.00;0.00;;;8.90;99.90;;;;;;5011769;28;20189;-67
2023/01/08 06:18:34;;;;;;;0.00;0.00;;;8.90;99.90;;;;;;5011198;28;20621;-68
2023/01/08 06:21:04;;;;;;;0.05;0.05;;;8.90;99.90;;;;;;5011339;28;20232;-67
2023/01/08 06:23:30;;;;;;;0.10;0.10;;;8.90;99.90;;;;;;5011503;28;20194;-68
2023/01/08 06:25:58;;;;;;;0.10;0.10;;;8.80;99.90;;;;;;5011553;28;20210;-67
2023/01/08 06:28:24;;;;;;;0.00;0.00;;;8.80;99.90;;;;;;5010851;28;20187;-67
2023/01/08 06:30:50;;;;;;;0.00;0.00;;;8.80;99.90;;;;;;5004238;28;20172;-67
2023/01/08 06:33:15;;;;;;;0.00;0.00;;;8.80;99.90;;;;;;4992117;28;20254;-67
2023/01/08 06:35:41;;;;;;;0.00;0.00;;;8.80;99.90;;;;;;5005885;28;20325;-67
2023/01/08 06:38:06;;;;;;;0.10;0.10;;;8.80;99.90;;;;;;5011729;28;20179;-67
2023/01/08 06:40:32;;;;;;;0.00;0.00;;;8.80;99.90;;;;;;5011429;28;20178;-67
2023/01/08 06:43:04;;;;;;;0.00;0.00;;;8.80;99.90;;;;;;5010087;28;20515;-67
2023/01/08 06:45:31;;;;;;;0.00;0.00;;;8.80;99.90;;;;;;5013660;28;20189;-67
2023/01/08 06:48:00;;;;;;;0.00;0.00;;;8.80;99.90;;;;;;5014908;28;20278;-67
2023/01/08 06:50:26;;;;;;;0.00;0.00;;;8.80;99.90;;;;;;5013407;28;20179;-67
2023/01/08 06:52:53;;;;;;;0.00;0.00;;;8.80;99.90;;;;;;5003859;28;20190;-67
2023/01/08 06:55:20;;;;;;;0.00;0.00;;;8.80;99.90;;;;;;5006682;28;20187;-67
2023/01/08 06:57:46;;;;;;;0.00;0.00;;;8.80;99.90;;;;;;5006185;28;20171;-68
2023/01/08 07:00:12;;;;;;;0.00;0.00;;;8.80;99.90;;;;;;5009556;28;20233;-67
2023/01/08 07:02:37;;;;;;;0.43;0.17;;;8.80;99.90;;;;;;5009466;28;20215;-68
2023/01/08 07:05:03;;;;;;;0.00;0.00;;;8.80;99.90;;;;;;5005935;28;20182;-67
2023/01/08 07:07:29;;;;;;;0.00;0.00;;;8.80;99.90;;;;;;5014544;28;20179;-66
2023/01/08 07:09:54;;;;;;;0.00;0.00;;;8.80;99.90;;;;;;5014272;28;20715;-65
2023/01/08 07:12:20;;;;;;;0.00;0.00;;;8.80;99.90;;;;;;5014995;28;20198;-65
2023/01/08 07:14:45;;;;;;;0.00;0.00;;;8.70;99.90;;;;;;5014674;28;20214;-63
2023/01/08 07:17:11;;;;;;;0.00;0.00;;;8.70;99.90;;;;;;5014937;28;20201;-65
2023/01/08 07:19:36;;;;;;;0.00;0.00;;;8.70;99.90;;;;;;5014364;28;20214;-66
2023/01/08 07:22:02;;;;;;;0.00;0.00;;;8.70;99.90;;;;;;5014652;28;20276;-69
2023/01/08 07:24:28;;;;;;;0.00;0.00;;;8.70;99.90;;;;;;5014348;28;20183;-66
2023/01/08 07:26:53;;;;;;;0.00;0.00;;;8.70;99.90;;;;;;5014109;28;20222;-65
2023/01/08 07:29:19;;;;;;;0.00;0.00;;;8.70;99.90;;;;;;5013940;28;20170;-66
2023/01/08 07:31:44;;;;;;;0.00;0.00;;;8.60;99.90;;;;;;5014118;28;20240;-65
2023/01/08 07:34:10;;;;;;;0.00;0.00;;;8.70;99.90;;;;;;5014514;28;20183;-67
2023/01/08 07:36:35;;;;;;;0.00;0.00;;;8.60;99.90;;;;;;4996272;28;20183;-68
2023/01/08 07:39:01;;;;;;;0.00;0.00;;;8.60;99.90;;;;;;5009946;28;20178;-67
2023/01/08 07:41:26;;;;;;;0.00;0.00;;;8.70;99.90;;;;;;4996952;28;20701;-67
2023/01/08 07:43:52;;;;;;;0.00;0.00;;;8.70;99.90;;;;;;4998205;28;20180;-67
2023/01/08 07:46:18;;;;;;;0.00;0.00;;;8.70;99.90;;;;;;5014289;28;20182;-67
2023/01/08 07:48:43;;;;;;;0.00;0.00;;;8.70;99.90;;;;;;5014211;28;20181;-67
2023/01/08 07:51:09;;;;;;;0.00;0.00;;;8.70;99.90;;;;;;5014307;28;20175;-67
2023/01/08 07:53:36;;;;;;;0.52;0.10;;;8.70;99.90;;;;;;5013731;28;20253;-67
2023/01/08 07:56:04;;;;;;;0.00;0.00;;;8.70;99.90;;;;;;5010635;28;20178;-67
2023/01/08 07:58:30;;;;;;;0.00;0.00;;;8.70;99.90;;;;;;4994489;28;20254;-67
2023/01/08 08:00:56;;;;;;;0.00;0.00;;;8.70;99.90;;;;;;4998014;28;20214;-67
2023/01/08 08:03:23;;;;;;;0.00;0.00;;;8.70;99.90;;;;;;5013985;28;20293;-67
2023/01/08 08:05:48;;;;;;;0.80;0.80;;;8.70;99.90;;;;;;5013948;28;20206;-67
2023/01/08 08:08:14;;;;;;;0.00;0.00;;;8.70;99.90;;;;;;5013810;28;20179;-67
2023/01/08 08:10:41;;;;;;;0.00;0.00;;;8.80;99.90;;;;;;5013806;28;20232;-67
2023/01/08 08:13:06;;;;;;;0.00;0.00;;;8.80;99.90;;;;;;5013913;28;20265;-67
2023/01/08 08:15:33;;;;;;;0.00;0.00;;;8.80;99.90;;;;;;5011613;28;20256;-67
2023/01/08 08:17:59;;;;;;;0.00;0.00;;;8.90;99.90;;;;;;4994059;28;20184;-67
2023/01/08 08:20:25;;;;;;;0.00;0.00;;;8.90;99.90;;;;;;4993970;28;20171;-67
2023/01/08 08:22:50;;;;;;;0.00;0.00;;;8.90;99.90;;;;;;4993891;28;20219;-67
2023/01/08 08:25:16;;;;;;;0.00;0.00;;;8.90;99.90;;;;;;4999538;28;20186;-67
2023/01/08 08:27:43;;;;;;;0.00;0.00;;;8.90;99.90;;;;;;5008949;28;20740;-67
2023/01/08 08:30:10;;;;;;;0.00;0.00;;;8.90;99.90;;;;;;5010735;28;20178;-67
2023/01/08 08:32:36;;;;;;;0.00;0.00;;;8.90;99.90;;;;;;5012734;28;20179;-67
2023/01/08 08:35:02;;;;;;;0.00;0.00;;;9.00;99.90;;;;;;5013464;28;20182;-67
2023/01/08 08:37:28;;;;;;;0.00;0.00;;;8.90;99.90;;;;;;5013276;28;20183;-66
2023/01/08 08:39:53;;;;;;;0.00;0.00;;;9.00;99.90;;;;;;5012936;28;20576;-67
2023/01/08 08:42:19;;;;;;;0.00;0.00;;;8.90;99.90;;;;;;5013045;28;20206;-67
2023/01/08 08:44:44;;;;;;;0.00;0.00;;;8.90;99.90;;;;;;5013026;28;20175;-67
2023/01/08 08:47:10;;;;;;;0.00;0.00;;;9.00;99.90;;;;;;5012919;28;20202;-67
2023/01/08 08:49:35;;;;;;;0.00;0.00;;;9.00;99.90;;;;;;5012819;28;20179;-67
2023/01/08 08:52:02;;;;;;;0.03;0.03;;;9.00;99.90;;;;;;5012521;28;20278;-67
2023/01/08 08:54:27;;;;;;;0.17;0.17;;;9.00;99.90;;;;;;5000718;28;20231;-67
2023/01/08 08:56:53;;;;;;;0.10;0.10;;;9.10;99.90;;;;;;4993116;28;20184;-67
2023/01/08 08:59:18;;;;;;;0.00;0.00;;;9.10;99.90;;;;;;5011724;28;20209;-67
2023/01/08 09:01:44;;;;;;;0.00;0.00;;;9.20;99.90;;;;;;5006824;28;20310;-66
2023/01/08 09:04:10;;;;;;;0.00;0.00;;;9.20;99.90;;;;;;4994397;28;20176;-67
2023/01/08 09:06:35;;;;;;;0.00;0.00;;;9.30;99.90;;;;;;4993961;28;20665;-67
2023/01/08 09:09:01;;;;;;;0.00;0.00;;;9.20;99.90;;;;;;4999639;28;20190;-66
2023/01/08 09:11:27;;;;;;;0.00;0.00;;;9.30;99.90;;;;;;5012592;28;20182;-66
2023/01/08 09:13:52;;;;;;;0.00;0.00;;;9.30;99.90;;;;;;5012487;28;20194;-66
2023/01/08 09:16:18;;;;;;;0.00;0.00;;;9.30;99.90;;;;;;5012725;28;20531;-66
2023/01/08 09:18:43;;;;;;;0.00;0.00;;;9.20;99.90;;;;;;5013716;28;20178;-66
2023/01/08 09:21:09;;;;;;;0.00;0.00;;;9.10;99.90;;;;;;5012612;28;20205;-67
2023/01/08 09:23:37;;;;;;;0.32;0.32;;;9.10;99.90;;;;;;5012344;28;20191;-68
2023/01/08 09:26:03;;;;;;;0.38;0.38;;;9.10;99.90;;;;;;5012679;28;20232;-66
2023/01/08 09:28:30;;;;;;;0.15;0.15;;;9.10;99.90;;;;;;5012436;28;20202;-66
2023/01/08 09:30:55;;;;;;;0.00;0.00;;;9.10;99.90;;;;;;5011803;28;20183;-66
2023/01/08 09:33:21;;;;;;;0.00;0.00;;;9.10;99.90;;;;;;5012373;28;20189;-63
2023/01/08 09:35:46;;;;;;;0.00;0.00;;;9.10;99.90;;;;;;5012432;28;20175;-65
2023/01/08 09:38:12;;;;;;;0.00;0.00;;;9.10;99.90;;;;;;5017872;28;20185;-66
2023/01/08 09:40:50;;;;;;;0.00;0.00;;;9.10;99.90;;;;;;5031888;28;20174;-66
2023/01/08 09:43:20;;;;;;;0.10;0.10;;;9.10;99.90;;;;;;5031714;28;20214;-66
2023/01/08 09:45:50;;;;;;;0.00;0.00;;;9.10;99.90;;;;;;5024730;28;20245;-66
2023/01/08 09:48:18;;;;;;;0.00;0.00;;;9.20;99.90;;;;;;5011979;28;20259;-66
2023/01/08 09:50:46;;;;;;;0.00;0.00;;;9.20;99.90;;;;;;5011759;28;20661;-66
2023/01/08 09:53:14;;;;;;;0.00;0.00;;;9.20;99.90;;;;;;5007079;28;20281;-66
2023/01/08 09:55:41;;;;;;;0.00;0.00;;;9.30;99.90;;;;;;4992266;28;20769;-66
2023/01/08 09:58:19;;;;;;;0.00;0.00;;;9.30;99.90;;;;;;4999675;28;20233;-65
2023/01/08 10:00:45;;;;;;;0.00;0.00;;;9.30;99.90;;;;;;5004989;28;20191;-65
2023/01/08 10:03:11;;;;;;;0.00;0.00;;;9.30;99.90;;;;;;5003458;28;20233;-65
2023/01/08 10:05:36;;;;;;;0.00;0.00;;;9.40;99.90;;;;;;5011129;28;20228;-65
2023/01/08 10:08:03;;;;;;;0.00;0.00;;;9.40;99.90;;;;;;5007763;28;20194;-65
2023/01/08 10:10:30;;;;;;;0.00;0.00;;;9.40;99.90;;;;;;5011815;28;20713;-66
2023/01/08 10:12:56;;;;;;;0.00;0.00;;;9.60;99.90;;;;;;5011622;28;20221;-66
2023/01/08 10:15:23;;;;;;;0.00;0.00;;;9.60;99.90;;;;;;5010830;28;20187;-66
2023/01/08 10:18:04;;;;;;;0.00;0.00;;;9.70;99.90;;;;;;5011548;28;20179;-66
2023/01/08 10:20:31;;;;;;;0.00;0.00;;;9.70;99.90;;;;;;4995512;28;20628;-66
2023/01/08 10:23:12;;;;;;;0.00;0.00;;;9.70;99.90;;;;;;5014244;28;20222;-66
2023/01/08 10:25:55;;;;;;;0.05;0.05;;;9.70;99.90;;;;;;5014750;28;20182;-66
2023/01/08 10:28:24;;;;;;;0.00;0.00;;;9.80;99.90;;;;;;5014613;28;20427;-66
2023/01/08 10:30:51;;;;;;;0.00;0.00;;;9.90;99.90;;;;;;5015310;28;20170;-65
2023/01/08 10:33:22;;;;;;;0.00;0.00;;;9.90;99.90;;;;;;5015765;28;20190;-64
2023/01/08 10:36:01;;;;;;;0.00;0.00;;;10.00;99.90;;;;;;5015337;28;20186;-65
2023/01/08 10:38:32;;;;;;;0.38;0.38;;;10.10;99.90;;;;;;5015249;28;20182;-65
2023/01/08 10:41:00;;;;;;;0.00;0.00;;;10.10;99.90;;;;;;5015020;28;20557;-65
2023/01/08 10:43:30;;;;;;;0.10;0.10;;;10.20;99.90;;;;;;5014526;28;20650;-65
2023/01/08 10:45:59;;;;;;;0.00;0.00;;;10.20;99.90;;;;;;5010415;28;20179;-65
2023/01/08 10:48:32;;;;;;;0.00;0.00;;;10.20;99.90;;;;;;5015013;28;20186;-65
2023/01/08 10:51:15;;;;;;;0.00;0.00;;;10.30;99.90;;;;;;5014971;28;20657;-65
2023/01/08 10:53:41;;;;;;;0.00;0.00;;;10.30;99.90;;;;;;4998845;28;20231;-65
2023/01/08 10:56:18;;;;;;;0.03;0.03;;;10.30;99.90;;;;;;5003572;28;20190;-65
2023/01/08 10:58:43;;;;;;;0.00;0.00;;;10.40;99.90;;;;;;5024745;28;20243;-65
2023/01/08 11:01:10;;;;;;;0.00;0.00;;;10.50;99.90;;;;;;5008635;28;20215;-65
2023/01/08 11:03:35;;;;;;;0.00;0.00;;;10.60;99.90;;;;;;4997141;28;20171;-65
2023/01/08 11:06:13;;;;;;;0.00;0.00;;;10.60;99.90;;;;;;5013533;28;20205;-65
2023/01/08 11:08:48;;;;;;;0.00;0.00;;;10.60;99.90;;;;;;5009012;28;20664;-65
2023/01/08 11:11:13;;;;;;;0.00;0.00;;;10.70;99.90;;;;;;5001341;28;20186;-65
2023/01/08 11:13:39;;;;;;;0.00;0.00;;;10.60;99.90;;;;;;5007160;28;20551;-64
2023/01/08 11:16:09;;;;;;;0.00;0.00;;;10.60;99.90;;;;;;5013655;28;20213;-65
2023/01/08 11:18:51;;;;;;;0.00;0.00;;;10.60;99.90;;;;;;5004922;28;20175;-64
2023/01/08 11:21:23;;;;;;;0.00;0.00;;;10.50;99.90;;;;;;5003866;28;20230;-65
2023/01/08 11:24:25;;;;;;;0.00;0.00;;;10.50;99.90;;;;;;5012647;28;20564;-66
2023/01/08 11:27:03;;;;;;;0.00;0.00;;;10.60;99.90;;;;;;4984238;28;20195;-65
2023/01/08 11:30:01;;;;;;;0.00;0.00;;;10.60;99.90;;;;;;5004971;28;20660;-65
2023/01/08 11:32:41;;;;;;;0.00;0.00;;;10.70;99.90;;;;;;5013477;28;20258;-65
2023/01/08 11:35:18;;;;;;;0.00;0.00;;;10.80;99.90;;;;;;5013423;28;20185;-65
2023/01/08 11:37:50;;;;;;;0.00;0.00;;;10.80;99.90;;;;;;5013502;28;20764;-64
2023/01/08 11:40:20;;;;;;;0.00;0.00;;;10.80;99.90;;;;;;5013466;28;20183;-65
2023/01/08 11:43:04;;;;;;;0.00;0.00;;;10.90;99.90;;;;;;5013036;28;20222;-65
2023/01/08 11:45:57;;;;;;;0.00;0.00;;;10.90;99.90;;;;;;5013298;28;20254;-64
2023/01/08 11:48:38;;;;;;;0.00;0.00;;;10.90;99.90;;;;;;5013263;28;20225;-65
2023/01/08 11:51:22;;;;;;;0.00;0.00;;;10.90;99.90;;;;;;5012596;28;20245;-65
2023/01/08 11:53:53;;;;;;;0.00;0.00;;;10.90;99.90;;;;;;4976912;28;1050892;-65
2023/01/08 11:56:58;;;;;;;0.00;0.00;;;10.80;99.90;;;;;;5014310;28;20226;-65
2023/01/08 11:59:45;;;;;;;0.00;0.00;;;10.80;99.90;;;;;;5014221;28;20228;-65
2023/01/08 12:02:25;;;;;;;0.00;0.00;;;10.90;99.90;;;;;;5014097;28;20272;-65
2023/01/08 12:05:12;;;;;;;0.00;0.00;;;10.90;99.90;;;;;;4994393;28;20242;-65
2023/01/08 12:07:48;;;;;;;0.00;0.00;;;11.00;99.90;;;;;;4994426;28;20186;-65
2023/01/08 12:10:48;;;;;;;0.00;0.00;;;11.00;99.90;;;;;;5007561;28;20279;-65
2023/01/08 12:13:47;;;;;;;0.00;0.00;;;11.10;99.90;;;;;;4995863;28;20217;-64
2023/01/08 12:16:42;;;;;;;0.00;0.00;;;11.00;99.90;;;;;;5002993;28;20187;-64
2023/01/08 12:19:16;;;;;;;0.00;0.00;;;10.90;99.90;;;;;;5012901;28;20198;-64
2023/01/08 12:22:16;;;;;;;0.00;0.00;;;10.80;99.90;;;;;;5006661;28;20284;-63
2023/01/08 12:24:53;;;;;;;0.00;0.00;;;10.80;99.90;;;;;;4997976;28;20673;-64
2023/01/08 12:27:28;;;;;;;0.00;0.00;;;10.80;99.90;;;;;;5008371;28;20187;-64
2023/01/08 12:30:09;;;;;;;0.00;0.00;;;10.80;99.90;;;;;;5013613;28;20174;-64
2023/01/08 12:32:38;;;;;;;0.00;0.00;;;10.90;99.90;;;;;;5013417;28;20227;-64
2023/01/08 12:35:28;;;;;;;0.00;0.00;;;11.00;99.90;;;;;;5013613;28;20670;-64
2023/01/08 12:38:15;;;;;;;0.00;0.00;;;11.00;99.90;;;;;;5013424;28;20231;-64
2023/01/08 12:41:03;;;;;;;0.00;0.00;;;11.10;99.90;;;;;;5013346;28;20179;-64
2023/01/08 12:43:34;;;;;;;0.00;0.00;;;11.10;99.90;;;;;;5012264;28;20646;-63
2023/01/08 12:46:02;;;;;;;0.00;0.00;;;11.10;99.90;;;;;;5013198;28;20214;-63
2023/01/08 12:48:31;;;;;;;0.00;0.00;;;11.10;99.90;;;;;;5011684;28;20174;-62
2023/01/08 12:51:16;;;;;;;0.00;0.00;;;11.10;99.90;;;;;;5013248;28;20183;-62
2023/01/08 12:54:04;;;;;;;0.00;0.00;;;11.00;99.90;;;;;;5013023;28;20235;-62
2023/01/08 12:56:51;;;;;;;0.00;0.00;;;11.00;99.90;;;;;;4996252;28;20191;-63
2023/01/08 12:59:42;;;;;;;0.00;0.00;;;10.80;99.90;;;;;;4993540;28;20179;-63
2023/01/08 13:02:26;;;;;;;0.00;0.00;;;10.70;99.90;;;;;;4994288;28;20280;-63
2023/01/08 13:04:52;;;;;;;0.00;0.00;;;10.70;99.90;;;;;;5013057;28;20225;-63
2023/01/08 13:07:21;;;;;;;0.00;0.00;;;10.70;99.90;;;;;;5012373;28;20673;-64
2023/01/08 13:10:02;;;;;;;0.00;0.00;;;10.70;99.90;;;;;;4996833;28;20539;-63